sensor_id;sensor_type;location;lat;lon;timestamp;temperature;humidity
25616;DHT22;13482;48.234;13.006;2023-07-31T00:00:54;21.80;61.30
25616;DHT22;13482;48.234;13.006;2023-07-31T00:03:21;21.80;61.30
25616;DHT22;13482;48.234;13.006;2023-07-31T00:05:49;21.80;61.30
25616;DHT22;13482;48.234;13.006;2023-07-31T00:08:16;21.80;61.30
25616;DHT22;13482;48.234;13.006;2023-07-31T00:10:44;21.70;61.30
25616;DHT22;13482;48.234;13.006;2023-07-31T00:13:11;21.70;61.30
25616;DHT22;13482;48.234;13.006;2023-07-31T00:15:39;21.70;61.30
25616;DHT22;13482;48.234;13.006;2023-07-31T00:18:06;21.70;61.40
25616;DHT22;13482;48.234;13.006;2023-07-31T00:20:34;21.70;61.40
25616;DHT22;13482;48.234;13.006;2023-07-31T00:23:01;21.70;61.30
25616;DHT22;13482;48.234;13.006;2023-07-31T00:25:29;21.60;61.40
25616;DHT22;13482;48.234;13.006;2023-07-31T00:27:56;21.60;61.40
25616;DHT22;13482;48.234;13.006;2023-07-31T00:30:24;21.60;61.40
25616;DHT22;13482;48.234;13.006;2023-07-31T00:32:52;21.60;61.40
25616;DHT22;13482;48.234;13.006;2023-07-31T00:35:20;21.60;61.40
25616;DHT22;13482;48.234;13.006;2023-07-31T00:37:47;21.50;61.40
25616;DHT22;13482;48.234;13.006;2023-07-31T00:40:15;21.50;61.40
25616;DHT22;13482;48.234;13.006;2023-07-31T00:42:42;21.50;61.40
25616;DHT22;13482;48.234;13.006;2023-07-31T00:45:10;21.40;61.40
25616;DHT22;13482;48.234;13.006;2023-07-31T00:47:37;21.40;61.40
25616;DHT22;13482;48.234;13.006;2023-07-31T00:50:05;21.40;61.40
25616;DHT22;13482;48.234;13.006;2023-07-31T00:52:34;21.30;61.40
25616;DHT22;13482;48.234;13.006;2023-07-31T00:55:04;21.30;61.40
25616;DHT22;13482;48.234;13.006;2023-07-31T00:57:32;21.30;61.40
25616;DHT22;13482;48.234;13.006;2023-07-31T01:00:00;21.20;61.40
25616;DHT22;13482;48.234;13.006;2023-07-31T01:02:28;21.20;61.40
25616;DHT22;13482;48.234;13.006;2023-07-31T01:04:56;21.20;61.50
25616;DHT22;13482;48.234;13.006;2023-07-31T01:08:03;21.10;61.60
25616;DHT22;13482;48.234;13.006;2023-07-31T01:10:56;21.10;62.00
25616;DHT22;13482;48.234;13.006;2023-07-31T01:13:28;21.10;61.90
25616;DHT22;13482;48.234;13.006;2023-07-31T01:15:56;21.00;61.80
25616;DHT22;13482;48.234;13.006;2023-07-31T01:18:24;21.00;61.80
25616;DHT22;13482;48.234;13.006;2023-07-31T01:21:03;20.90;61.90
25616;DHT22;13482;48.234;13.006;2023-07-31T01:23:57;20.90;62.10
25616;DHT22;13482;48.234;13.006;2023-07-31T01:26:37;20.90;62.20
25616;DHT22;13482;48.234;13.006;2023-07-31T01:32:19;20.80;62.20
25616;DHT22;13482;48.234;13.006;2023-07-31T01:34:48;20.80;62.10
25616;DHT22;13482;48.234;13.006;2023-07-31T01:37:16;20.80;62.10
25616;DHT22;13482;48.234;13.006;2023-07-31T01:39:44;20.70;62.20
25616;DHT22;13482;48.234;13.006;2023-07-31T01:42:11;20.70;62.30
25616;DHT22;13482;48.234;13.006;2023-07-31T01:44:39;20.70;62.40
25616;DHT22;13482;48.234;13.006;2023-07-31T01:47:06;20.60;62.40
25616;DHT22;13482;48.234;13.006;2023-07-31T01:49:34;20.60;62.50
25616;DHT22;13482;48.234;13.006;2023-07-31T01:52:01;20.60;62.60
25616;DHT22;13482;48.234;13.006;2023-07-31T01:54:29;20.50;62.70
25616;DHT22;13482;48.234;13.006;2023-07-31T01:56:56;20.50;62.70
25616;DHT22;13482;48.234;13.006;2023-07-31T01:59:23;20.50;62.70
25616;DHT22;13482;48.234;13.006;2023-07-31T02:01:51;20.40;62.80
25616;DHT22;13482;48.234;13.006;2023-07-31T02:04:20;20.40;62.90
25616;DHT22;13482;48.234;13.006;2023-07-31T02:06:48;20.40;62.90
25616;DHT22;13482;48.234;13.006;2023-07-31T02:09:18;20.40;63.00
25616;DHT22;13482;48.234;13.006;2023-07-31T02:14:35;20.40;63.20
25616;DHT22;13482;48.234;13.006;2023-07-31T02:17:03;20.30;63.30
25616;DHT22;13482;48.234;13.006;2023-07-31T02:19:30;20.30;63.40
25616;DHT22;13482;48.234;13.006;2023-07-31T02:21:58;20.30;63.50
25616;DHT22;13482;48.234;13.006;2023-07-31T02:24:26;20.30;63.70
25616;DHT22;13482;48.234;13.006;2023-07-31T02:26:54;20.20;63.70
25616;DHT22;13482;48.234;13.006;2023-07-31T02:29:24;20.20;63.70
25616;DHT22;13482;48.234;13.006;2023-07-31T02:31:51;20.20;63.80
25616;DHT22;13482;48.234;13.006;2023-07-31T02:34:19;20.20;63.80
25616;DHT22;13482;48.234;13.006;2023-07-31T02:36:46;20.20;63.90
25616;DHT22;13482;48.234;13.006;2023-07-31T02:39:14;20.20;64.00
25616;DHT22;13482;48.234;13.006;2023-07-31T02:41:41;20.10;64.10
25616;DHT22;13482;48.234;13.006;2023-07-31T02:44:08;20.10;64.20
25616;DHT22;13482;48.234;13.006;2023-07-31T02:46:37;20.10;64.30
25616;DHT22;13482;48.234;13.006;2023-07-31T02:49:05;20.00;64.40
25616;DHT22;13482;48.234;13.006;2023-07-31T02:51:32;20.00;64.40
25616;DHT22;13482;48.234;13.006;2023-07-31T02:54:00;20.00;64.40
25616;DHT22;13482;48.234;13.006;2023-07-31T02:56:27;19.90;64.50
25616;DHT22;13482;48.234;13.006;2023-07-31T02:58:54;19.90;64.50
25616;DHT22;13482;48.234;13.006;2023-07-31T03:01:22;19.80;64.50
25616;DHT22;13482;48.234;13.006;2023-07-31T03:03:49;19.80;64.70
25616;DHT22;13482;48.234;13.006;2023-07-31T03:06:17;19.80;64.80
25616;DHT22;13482;48.234;13.006;2023-07-31T03:08:44;19.70;64.90
25616;DHT22;13482;48.234;13.006;2023-07-31T03:11:12;19.70;65.10
25616;DHT22;13482;48.234;13.006;2023-07-31T03:13:39;19.60;65.20
25616;DHT22;13482;48.234;13.006;2023-07-31T03:16:06;19.60;65.20
25616;DHT22;13482;48.234;13.006;2023-07-31T03:18:34;19.60;65.20
25616;DHT22;13482;48.234;13.006;2023-07-31T03:21:01;19.60;65.30
25616;DHT22;13482;48.234;13.006;2023-07-31T03:23:29;19.50;65.30
25616;DHT22;13482;48.234;13.006;2023-07-31T03:25:57;19.50;65.30
25616;DHT22;13482;48.234;13.006;2023-07-31T03:28:26;19.50;65.40
25616;DHT22;13482;48.234;13.006;2023-07-31T03:30:53;19.50;65.40
25616;DHT22;13482;48.234;13.006;2023-07-31T03:33:21;19.50;65.40
25616;DHT22;13482;48.234;13.006;2023-07-31T03:35:48;19.40;65.50
25616;DHT22;13482;48.234;13.006;2023-07-31T03:38:16;19.40;65.60
25616;DHT22;13482;48.234;13.006;2023-07-31T03:40:43;19.40;65.70
25616;DHT22;13482;48.234;13.006;2023-07-31T03:43:12;19.40;65.80
25616;DHT22;13482;48.234;13.006;2023-07-31T03:45:40;19.30;65.80
25616;DHT22;13482;48.234;13.006;2023-07-31T03:48:08;19.30;65.80
25616;DHT22;13482;48.234;13.006;2023-07-31T03:50:35;19.30;65.90
25616;DHT22;13482;48.234;13.006;2023-07-31T03:53:03;19.30;65.80
25616;DHT22;13482;48.234;13.006;2023-07-31T03:55:30;19.20;65.90
25616;DHT22;13482;48.234;13.006;2023-07-31T03:57:58;19.20;66.00
25616;DHT22;13482;48.234;13.006;2023-07-31T04:00:27;19.20;65.90
25616;DHT22;13482;48.234;13.006;2023-07-31T04:02:54;19.20;65.70
25616;DHT22;13482;48.234;13.006;2023-07-31T04:05:22;19.20;65.80
25616;DHT22;13482;48.234;13.006;2023-07-31T04:07:49;19.20;65.80
25616;DHT22;13482;48.234;13.006;2023-07-31T04:10:17;19.20;65.90
25616;DHT22;13482;48.234;13.006;2023-07-31T04:12:44;19.20;65.80
25616;DHT22;13482;48.234;13.006;2023-07-31T04:15:12;19.20;65.80
25616;DHT22;13482;48.234;13.006;2023-07-31T04:17:39;19.20;65.90
25616;DHT22;13482;48.234;13.006;2023-07-31T04:20:07;19.20;66.00
25616;DHT22;13482;48.234;13.006;2023-07-31T04:22:35;19.20;66.00
25616;DHT22;13482;48.234;13.006;2023-07-31T04:25:02;19.20;66.20
25616;DHT22;13482;48.234;13.006;2023-07-31T04:27:29;19.20;66.40
25616;DHT22;13482;48.234;13.006;2023-07-31T04:29:57;19.20;66.50
25616;DHT22;13482;48.234;13.006;2023-07-31T04:32:24;19.20;66.70
25616;DHT22;13482;48.234;13.006;2023-07-31T04:34:52;19.20;66.90
25616;DHT22;13482;48.234;13.006;2023-07-31T04:37:19;19.30;66.90
25616;DHT22;13482;48.234;13.006;2023-07-31T04:40:33;19.30;66.90
25616;DHT22;13482;48.234;13.006;2023-07-31T04:43:00;19.30;66.70
25616;DHT22;13482;48.234;13.006;2023-07-31T04:45:28;19.30;66.80
25616;DHT22;13482;48.234;13.006;2023-07-31T04:47:55;19.30;67.00
25616;DHT22;13482;48.234;13.006;2023-07-31T04:50:23;19.40;67.00
25616;DHT22;13482;48.234;13.006;2023-07-31T04:52:50;19.40;67.20
25616;DHT22;13482;48.234;13.006;2023-07-31T04:55:18;19.50;67.10
25616;DHT22;13482;48.234;13.006;2023-07-31T04:57:45;19.50;67.20
25616;DHT22;13482;48.234;13.006;2023-07-31T05:00:12;19.60;67.30
25616;DHT22;13482;48.234;13.006;2023-07-31T05:02:40;19.60;67.30
25616;DHT22;13482;48.234;13.006;2023-07-31T05:05:08;19.70;67.30
25616;DHT22;13482;48.234;13.006;2023-07-31T05:07:35;19.70;67.40
25616;DHT22;13482;48.234;13.006;2023-07-31T05:10:04;19.80;67.40
25616;DHT22;13482;48.234;13.006;2023-07-31T05:12:31;19.90;67.40
25616;DHT22;13482;48.234;13.006;2023-07-31T05:14:59;20.00;67.30
25616;DHT22;13482;48.234;13.006;2023-07-31T05:17:26;20.00;67.30
25616;DHT22;13482;48.234;13.006;2023-07-31T05:19:54;20.10;67.40
25616;DHT22;13482;48.234;13.006;2023-07-31T05:22:21;20.20;67.30
25616;DHT22;13482;48.234;13.006;2023-07-31T05:24:48;20.30;67.30
25616;DHT22;13482;48.234;13.006;2023-07-31T05:27:16;20.40;67.40
25616;DHT22;13482;48.234;13.006;2023-07-31T05:29:45;20.50;67.30
25616;DHT22;13482;48.234;13.006;2023-07-31T05:32:13;20.60;67.40
25616;DHT22;13482;48.234;13.006;2023-07-31T05:34:40;20.70;67.20
25616;DHT22;13482;48.234;13.006;2023-07-31T05:37:10;20.80;67.20
25616;DHT22;13482;48.234;13.006;2023-07-31T05:39:38;20.90;67.10
25616;DHT22;13482;48.234;13.006;2023-07-31T05:42:06;21.10;67.10
25616;DHT22;13482;48.234;13.006;2023-07-31T05:44:33;21.20;67.00
25616;DHT22;13482;48.234;13.006;2023-07-31T05:47:01;21.30;66.80
25616;DHT22;13482;48.234;13.006;2023-07-31T05:49:28;21.40;66.70
25616;DHT22;13482;48.234;13.006;2023-07-31T05:51:56;21.50;66.70
25616;DHT22;13482;48.234;13.006;2023-07-31T05:54:23;21.60;66.80
25616;DHT22;13482;48.234;13.006;2023-07-31T05:56:50;21.70;66.90
25616;DHT22;13482;48.234;13.006;2023-07-31T05:59:18;21.80;66.90
25616;DHT22;13482;48.234;13.006;2023-07-31T06:01:45;21.90;67.00
25616;DHT22;13482;48.234;13.006;2023-07-31T06:04:13;22.10;67.00
25616;DHT22;13482;48.234;13.006;2023-07-31T06:06:40;22.20;66.70
25616;DHT22;13482;48.234;13.006;2023-07-31T06:09:08;22.30;66.70
25616;DHT22;13482;48.234;13.006;2023-07-31T06:11:35;22.50;66.80
25616;DHT22;13482;48.234;13.006;2023-07-31T06:14:03;22.60;66.70
25616;DHT22;13482;48.234;13.006;2023-07-31T06:16:30;22.70;66.50
25616;DHT22;13482;48.234;13.006;2023-07-31T10:10:50;29.00;54.80
25616;DHT22;13482;48.234;13.006;2023-07-31T10:27:13;29.00;54.50
25616;DHT22;13482;48.234;13.006;2023-07-31T10:33:58;28.80;55.80
25616;DHT22;13482;48.234;13.006;2023-07-31T10:42:39;28.80;55.00
25616;DHT22;13482;48.234;13.006;2023-07-31T10:50:59;28.70;55.40
25616;DHT22;13482;48.234;13.006;2023-07-31T10:55:27;28.70;55.00
25616;DHT22;13482;48.234;13.006;2023-07-31T11:02:40;28.60;55.00
25616;DHT22;13482;48.234;13.006;2023-07-31T11:10:24;28.50;55.50
25616;DHT22;13482;48.234;13.006;2023-07-31T11:13:45;28.50;55.10
25616;DHT22;13482;48.234;13.006;2023-07-31T11:17:33;28.60;55.20
25616;DHT22;13482;48.234;13.006;2023-07-31T11:21:14;28.70;54.90
25616;DHT22;13482;48.234;13.006;2023-07-31T11:24:39;28.70;54.00
25616;DHT22;13482;48.234;13.006;2023-07-31T11:27:53;28.80;55.30
25616;DHT22;13482;48.234;13.006;2023-07-31T11:31:16;28.90;55.60
25616;DHT22;13482;48.234;13.006;2023-07-31T11:35:24;29.00;55.00
25616;DHT22;13482;48.234;13.006;2023-07-31T11:39:06;29.10;53.50
25616;DHT22;13482;48.234;13.006;2023-07-31T11:42:23;29.20;54.30
25616;DHT22;13482;48.234;13.006;2023-07-31T11:45:47;29.20;54.50
25616;DHT22;13482;48.234;13.006;2023-07-31T11:49:03;29.30;53.90
25616;DHT22;13482;48.234;13.006;2023-07-31T11:52:45;29.30;54.00
25616;DHT22;13482;48.234;13.006;2023-07-31T11:57:01;29.30;53.70
25616;DHT22;13482;48.234;13.006;2023-07-31T12:01:28;29.40;53.90
25616;DHT22;13482;48.234;13.006;2023-07-31T12:13:28;29.30;52.20
25616;DHT22;13482;48.234;13.006;2023-07-31T12:16:39;29.30;53.20
25616;DHT22;13482;48.234;13.006;2023-07-31T12:20:08;29.20;52.50
25616;DHT22;13482;48.234;13.006;2023-07-31T12:23:18;29.20;53.40
25616;DHT22;13482;48.234;13.006;2023-07-31T13:00:14;30.20;52.90
25616;DHT22;13482;48.234;13.006;2023-07-31T13:03:44;30.20;52.70
25616;DHT22;13482;48.234;13.006;2023-07-31T13:38:58;31.00;51.90
25616;DHT22;13482;48.234;13.006;2023-07-31T13:47:21;31.40;51.10
25616;DHT22;13482;48.234;13.006;2023-07-31T14:04:33;31.50;50.80
25616;DHT22;13482;48.234;13.006;2023-07-31T14:07:19;31.50;50.60
25616;DHT22;13482;48.234;13.006;2023-07-31T14:10:09;31.50;51.10
25616;DHT22;13482;48.234;13.006;2023-07-31T14:13:00;31.50;51.00
25616;DHT22;13482;48.234;13.006;2023-07-31T14:15:56;31.50;50.80
25616;DHT22;13482;48.234;13.006;2023-07-31T14:19:21;31.60;50.60
25616;DHT22;13482;48.234;13.006;2023-07-31T14:22:09;31.60;50.50
25616;DHT22;13482;48.234;13.006;2023-07-31T14:53:27;31.90;50.60
25616;DHT22;13482;48.234;13.006;2023-07-31T14:56:01;32.00;51.30
25616;DHT22;13482;48.234;13.006;2023-07-31T14:59:05;32.20;50.80
25616;DHT22;13482;48.234;13.006;2023-07-31T15:01:55;32.30;50.90
25616;DHT22;13482;48.234;13.006;2023-07-31T15:05:11;32.40;50.60
25616;DHT22;13482;48.234;13.006;2023-07-31T15:08:06;32.60;49.40
25616;DHT22;13482;48.234;13.006;2023-07-31T15:10:56;32.70;50.30
25616;DHT22;13482;48.234;13.006;2023-07-31T15:13:43;32.80;50.00
25616;DHT22;13482;48.234;13.006;2023-07-31T15:16:23;32.90;49.80
25616;DHT22;13482;48.234;13.006;2023-07-31T15:19:09;32.90;49.80
25616;DHT22;13482;48.234;13.006;2023-07-31T15:21:51;33.00;49.20
25616;DHT22;13482;48.234;13.006;2023-07-31T15:24:28;33.00;49.20
25616;DHT22;13482;48.234;13.006;2023-07-31T15:27:16;33.00;49.10
25616;DHT22;13482;48.234;13.006;2023-07-31T15:30:24;33.00;49.10
25616;DHT22;13482;48.234;13.006;2023-07-31T15:33:38;33.10;48.80
25616;DHT22;13482;48.234;13.006;2023-07-31T15:36:43;33.30;48.80
25616;DHT22;13482;48.234;13.006;2023-07-31T15:39:29;33.40;49.10
25616;DHT22;13482;48.234;13.006;2023-07-31T15:42:06;33.60;49.50
25616;DHT22;13482;48.234;13.006;2023-07-31T15:45:12;33.90;49.90
25616;DHT22;13482;48.234;13.006;2023-07-31T15:48:19;34.30;48.30
25616;DHT22;13482;48.234;13.006;2023-07-31T15:51:07;34.70;47.70
25616;DHT22;13482;48.234;13.006;2023-07-31T15:54:01;35.00;48.30
25616;DHT22;13482;48.234;13.006;2023-07-31T15:56:40;35.20;47.80
25616;DHT22;13482;48.234;13.006;2023-07-31T15:59:20;35.40;47.70
25616;DHT22;13482;48.234;13.006;2023-07-31T16:02:10;35.40;46.90
25616;DHT22;13482;48.234;13.006;2023-07-31T16:04:53;35.30;46.70
25616;DHT22;13482;48.234;13.006;2023-07-31T16:08:03;35.10;46.70
25616;DHT22;13482;48.234;13.006;2023-07-31T16:10:53;34.80;46.10
25616;DHT22;13482;48.234;13.006;2023-07-31T16:13:50;34.50;46.30
25616;DHT22;13482;48.234;13.006;2023-07-31T16:16:56;34.30;46.60
25616;DHT22;13482;48.234;13.006;2023-07-31T16:25:01;33.60;46.80
25616;DHT22;13482;48.234;13.006;2023-07-31T16:32:40;33.10;47.40
25616;DHT22;13482;48.234;13.006;2023-07-31T16:36:07;32.80;47.70
25616;DHT22;13482;48.234;13.006;2023-07-31T16:40:05;32.60;48.00
25616;DHT22;13482;48.234;13.006;2023-07-31T16:43:56;32.40;48.10
25616;DHT22;13482;48.234;13.006;2023-07-31T16:46:33;32.20;48.30
25616;DHT22;13482;48.234;13.006;2023-07-31T16:49:23;32.00;48.50
25616;DHT22;13482;48.234;13.006;2023-07-31T16:51:59;31.90;48.70
25616;DHT22;13482;48.234;13.006;2023-07-31T16:54:30;31.80;49.00
25616;DHT22;13482;48.234;13.006;2023-07-31T16:57:42;31.80;49.40
25616;DHT22;13482;48.234;13.006;2023-07-31T17:00:22;31.80;49.50
25616;DHT22;13482;48.234;13.006;2023-07-31T17:06:03;31.60;49.10
25616;DHT22;13482;48.234;13.006;2023-07-31T17:08:37;31.40;49.00
25616;DHT22;13482;48.234;13.006;2023-07-31T17:11:18;31.30;49.20
25616;DHT22;13482;48.234;13.006;2023-07-31T17:13:57;31.10;49.30
25616;DHT22;13482;48.234;13.006;2023-07-31T17:16:37;31.00;49.40
25616;DHT22;13482;48.234;13.006;2023-07-31T17:19:22;30.90;49.50
25616;DHT22;13482;48.234;13.006;2023-07-31T17:22:25;30.70;49.60
25616;DHT22;13482;48.234;13.006;2023-07-31T17:25:17;30.60;49.70
25616;DHT22;13482;48.234;13.006;2023-07-31T17:30:51;30.30;50.20
25616;DHT22;13482;48.234;13.006;2023-07-31T17:33:35;30.20;50.40
25616;DHT22;13482;48.234;13.006;2023-07-31T17:36:18;30.00;50.40
25616;DHT22;13482;48.234;13.006;2023-07-31T17:38:50;30.00;50.50
25616;DHT22;13482;48.234;13.006;2023-07-31T17:41:50;29.90;50.40
25616;DHT22;13482;48.234;13.006;2023-07-31T17:44:44;29.70;50.40
25616;DHT22;13482;48.234;13.006;2023-07-31T17:47:30;29.60;50.40
25616;DHT22;13482;48.234;13.006;2023-07-31T17:50:35;29.50;50.50
25616;DHT22;13482;48.234;13.006;2023-07-31T17:53:43;29.40;50.60
25616;DHT22;13482;48.234;13.006;2023-07-31T17:56:19;29.20;50.80
25616;DHT22;13482;48.234;13.006;2023-07-31T17:59:05;29.10;50.90
25616;DHT22;13482;48.234;13.006;2023-07-31T18:01:44;29.00;50.90
25616;DHT22;13482;48.234;13.006;2023-07-31T18:04:27;28.90;51.10
25616;DHT22;13482;48.234;13.006;2023-07-31T18:07:15;28.80;51.20
25616;DHT22;13482;48.234;13.006;2023-07-31T18:10:13;28.70;51.40
25616;DHT22;13482;48.234;13.006;2023-07-31T18:13:04;28.70;51.50
25616;DHT22;13482;48.234;13.006;2023-07-31T18:16:37;28.60;51.60
25616;DHT22;13482;48.234;13.006;2023-07-31T18:19:24;28.60;51.80
25616;DHT22;13482;48.234;13.006;2023-07-31T18:22:37;28.50;51.90
25616;DHT22;13482;48.234;13.006;2023-07-31T18:25:31;28.50;51.90
25616;DHT22;13482;48.234;13.006;2023-07-31T18:29:03;28.50;51.90
25616;DHT22;13482;48.234;13.006;2023-07-31T18:32:07;28.50;51.90
25616;DHT22;13482;48.234;13.006;2023-07-31T18:35:27;28.50;51.90
25616;DHT22;13482;48.234;13.006;2023-07-31T18:38:40;28.40;52.10
25616;DHT22;13482;48.234;13.006;2023-07-31T18:41:57;28.30;51.80
25616;DHT22;13482;48.234;13.006;2023-07-31T18:44:47;28.20;51.90
25616;DHT22;13482;48.234;13.006;2023-07-31T18:48:04;28.20;51.90
25616;DHT22;13482;48.234;13.006;2023-07-31T18:51:18;28.10;52.10
25616;DHT22;13482;48.234;13.006;2023-07-31T18:54:41;28.00;52.10
25616;DHT22;13482;48.234;13.006;2023-07-31T18:57:46;27.90;52.30
25616;DHT22;13482;48.234;13.006;2023-07-31T19:01:25;27.70;52.20
25616;DHT22;13482;48.234;13.006;2023-07-31T19:05:17;27.60;52.50
25616;DHT22;13482;48.234;13.006;2023-07-31T19:08:24;27.50;52.80
25616;DHT22;13482;48.234;13.006;2023-07-31T19:11:36;27.40;52.50
25616;DHT22;13482;48.234;13.006;2023-07-31T19:15:02;27.30;52.70
25616;DHT22;13482;48.234;13.006;2023-07-31T19:18:08;27.20;53.30
25616;DHT22;13482;48.234;13.006;2023-07-31T19:21:17;27.10;53.20
25616;DHT22;13482;48.234;13.006;2023-07-31T19:24:10;27.00;53.30
25616;DHT22;13482;48.234;13.006;2023-07-31T19:27:32;26.90;53.50
25616;DHT22;13482;48.234;13.006;2023-07-31T19:30:27;26.80;53.70
25616;DHT22;13482;48.234;13.006;2023-07-31T19:33:36;26.70;53.60
25616;DHT22;13482;48.234;13.006;2023-07-31T19:37:14;26.60;54.10
25616;DHT22;13482;48.234;13.006;2023-07-31T19:41:03;26.50;54.20
25616;DHT22;13482;48.234;13.006;2023-07-31T19:44:25;26.40;54.10
25616;DHT22;13482;48.234;13.006;2023-07-31T20:11:46;25.80;54.50
25616;DHT22;13482;48.234;13.006;2023-07-31T20:15:16;25.70;55.10
25616;DHT22;13482;48.234;13.006;2023-07-31T20:18:44;25.50;55.50
25616;DHT22;13482;48.234;13.006;2023-07-31T20:21:37;25.40;55.30
25616;DHT22;13482;48.234;13.006;2023-07-31T20:24:26;25.40;55.30
25616;DHT22;13482;48.234;13.006;2023-07-31T20:27:21;25.30;55.60
25616;DHT22;13482;48.234;13.006;2023-07-31T20:29:56;25.20;56.00
25616;DHT22;13482;48.234;13.006;2023-07-31T20:32:35;25.20;56.00
25616;DHT22;13482;48.234;13.006;2023-07-31T20:35:09;25.10;56.10
25616;DHT22;13482;48.234;13.006;2023-07-31T20:37:46;25.00;56.10
25616;DHT22;13482;48.234;13.006;2023-07-31T20:40:29;24.90;56.20
25616;DHT22;13482;48.234;13.006;2023-07-31T20:43:31;24.90;56.50
25616;DHT22;13482;48.234;13.006;2023-07-31T20:46:13;24.80;57.60
25616;DHT22;13482;48.234;13.006;2023-07-31T20:48:57;24.70;56.90
25616;DHT22;13482;48.234;13.006;2023-07-31T20:51:36;24.70;57.30
25616;DHT22;13482;48.234;13.006;2023-07-31T20:54:39;24.60;57.30
25616;DHT22;13482;48.234;13.006;2023-07-31T20:58:05;24.50;58.00
25616;DHT22;13482;48.234;13.006;2023-07-31T22:03:21;22.70;60.60
25616;DHT22;13482;48.234;13.006;2023-07-31T22:06:47;22.60;60.70
25616;DHT22;13482;48.234;13.006;2023-07-31T22:09:32;22.50;60.40
25616;DHT22;13482;48.234;13.006;2023-07-31T22:12:45;22.50;59.90
25616;DHT22;13482;48.234;13.006;2023-07-31T22:16:25;22.40;60.60
25616;DHT22;13482;48.234;13.006;2023-07-31T22:19:55;22.40;59.90
25616;DHT22;13482;48.234;13.006;2023-07-31T22:23:04;22.40;60.40
25616;DHT22;13482;48.234;13.006;2023-07-31T22:26:28;22.30;60.30
25616;DHT22;13482;48.234;13.006;2023-07-31T22:30:49;22.30;61.60
25616;DHT22;13482;48.234;13.006;2023-07-31T22:34:07;22.30;61.50
25616;DHT22;13482;48.234;13.006;2023-07-31T22:36:58;22.30;60.40
25616;DHT22;13482;48.234;13.006;2023-07-31T22:40:18;22.20;60.80
25616;DHT22;13482;48.234;13.006;2023-07-31T22:51:59;22.10;61.40
25616;DHT22;13482;48.234;13.006;2023-07-31T22:54:38;22.20;61.60
25616;DHT22;13482;48.234;13.006;2023-07-31T22:57:50;22.20;61.20
25616;DHT22;13482;48.234;13.006;2023-07-31T23:52:40;22.00;62.60
25616;DHT22;13482;48.234;13.006;2023-07-31T23:55:29;22.00;63.50
25616;DHT22;13482;48.234;13.006;2023-07-31T23:58:13;22.00;63.60
